createdAt,value
2023-03-31T00:00:58.255Z,13.50
2023-03-31T00:03:26.749Z,13.50
2023-03-31T00:05:58.799Z,13.40
2023-03-31T00:08:30.667Z,13.40
2023-03-31T00:11:02.282Z,13.40
2023-03-31T00:13:31.370Z,13.40
2023-03-31T00:16:00.387Z,13.40
2023-03-31T00:18:30.023Z,13.40
2023-03-31T00:21:08.960Z,13.40
2023-03-31T00:23:37.100Z,13.40
2023-03-31T00:26:07.148Z,13.30
2023-03-31T00:28:35.500Z,13.30
2023-03-31T00:31:04.379Z,13.30
2023-03-31T00:33:32.648Z,13.30
2023-03-31T00:36:02.309Z,13.30
2023-03-31T00:38:31.106Z,13.30
2023-03-31T00:40:59.839Z,13.30
2023-03-31T00:43:34.039Z,13.20
2023-03-31T00:46:17.944Z,13.20
2023-03-31T00:48:51.564Z,13.20
2023-03-31T00:51:22.375Z,13.10
2023-03-31T00:53:57.569Z,13.10
2023-03-31T00:56:27.649Z,13.10
2023-03-31T00:59:02.264Z,13.10
2023-03-31T01:01:30.705Z,13.00
2023-03-31T01:03:59.366Z,13.00
2023-03-31T01:06:31.013Z,13.00
2023-03-31T01:08:59.571Z,13.00
2023-03-31T01:11:30.915Z,12.90
2023-03-31T01:14:00.802Z,12.90
2023-03-31T01:16:29.193Z,12.90
2023-03-31T01:18:57.726Z,12.90
2023-03-31T01:22:11.019Z,12.80
2023-03-31T01:25:10.677Z,12.90
2023-03-31T01:27:57.997Z,12.80
2023-03-31T01:31:13.964Z,12.80
2023-03-31T01:34:19.548Z,12.80
2023-03-31T01:37:29.439Z,12.70
2023-03-31T01:40:20.280Z,12.70
2023-03-31T01:42:54.565Z,12.70
2023-03-31T01:45:33.250Z,12.70
2023-03-31T01:48:06.714Z,12.70
2023-03-31T01:50:40.369Z,12.70
2023-03-31T01:53:18.043Z,12.60
2023-03-31T01:55:54.360Z,12.60
2023-03-31T01:58:26.818Z,12.60
2023-03-31T02:01:01.980Z,12.60
2023-03-31T02:03:34.598Z,12.60
2023-03-31T02:06:09.156Z,12.60
2023-03-31T02:08:41.867Z,12.60
2023-03-31T02:11:11.839Z,12.60
2023-03-31T02:13:44.640Z,12.60
2023-03-31T02:16:19.141Z,12.50
2023-03-31T02:18:50.088Z,12.50
2023-03-31T02:21:18.849Z,12.50
2023-03-31T02:23:49.401Z,12.50
2023-03-31T02:26:24.752Z,12.50
2023-03-31T02:28:53.150Z,12.50
2023-03-31T02:31:29.889Z,12.40
2023-03-31T02:33:58.219Z,12.40
2023-03-31T02:36:26.942Z,12.40
2023-03-31T02:38:59.076Z,12.40
2023-03-31T02:42:25.373Z,12.40
2023-03-31T02:44:54.828Z,12.40
2023-03-31T02:47:23.795Z,12.40
2023-03-31T02:49:55.564Z,12.30
2023-03-31T02:52:40.322Z,12.30
2023-03-31T02:55:23.025Z,12.30
2023-03-31T02:58:19.227Z,12.30
2023-03-31T03:01:04.950Z,12.30
2023-03-31T03:03:44.205Z,12.20
2023-03-31T03:06:22.199Z,12.20
2023-03-31T03:09:14.804Z,12.20
2023-03-31T03:11:49.241Z,12.20
2023-03-31T03:14:27.124Z,12.20
2023-03-31T03:17:02.769Z,12.20
2023-03-31T03:19:31.071Z,12.20
2023-03-31T03:21:59.454Z,12.10
2023-03-31T03:24:29.687Z,12.10
2023-03-31T03:26:58.538Z,12.10
2023-03-31T03:29:27.224Z,12.10
2023-03-31T03:31:56.642Z,12.10
2023-03-31T03:34:25.647Z,12.10
2023-03-31T03:36:53.740Z,12.10
2023-03-31T03:39:21.991Z,12.10
2023-03-31T03:41:50.081Z,12.10
2023-03-31T03:44:18.272Z,12.10
2023-03-31T03:46:46.398Z,12.10
2023-03-31T03:49:16.050Z,12.10
2023-03-31T03:51:44.179Z,12.10
2023-03-31T03:54:12.295Z,12.10
2023-03-31T03:56:40.609Z,12.00
2023-03-31T03:59:08.682Z,12.00
2023-03-31T04:01:37.307Z,12.00
2023-03-31T04:04:05.947Z,12.00
2023-03-31T04:06:35.942Z,12.00
2023-03-31T04:09:04.326Z,12.00
2023-03-31T04:11:32.735Z,12.00
2023-03-31T04:14:00.865Z,12.00
2023-03-31T04:16:29.243Z,12.00
2023-03-31T04:18:59.521Z,12.00
2023-03-31T04:21:27.679Z,12.00
2023-03-31T04:24:01.610Z,12.00
2023-03-31T04:26:39.161Z,12.00
2023-03-31T04:29:07.719Z,12.00
2023-03-31T04:31:38.843Z,12.00
2023-03-31T04:34:13.190Z,12.00
2023-03-31T04:36:47.277Z,12.00
2023-03-31T04:39:18.542Z,12.00
2023-03-31T04:41:46.689Z,12.00
2023-03-31T04:44:14.926Z,12.00
2023-03-31T04:46:43.120Z,12.00
2023-03-31T04:49:11.237Z,12.00
2023-03-31T04:51:39.442Z,12.10
2023-03-31T04:54:07.812Z,12.00
2023-03-31T04:56:37.290Z,12.10
2023-03-31T04:59:05.434Z,12.00
2023-03-31T05:01:36.417Z,12.00
2023-03-31T05:04:05.082Z,12.00
2023-03-31T05:06:33.703Z,12.00
2023-03-31T05:09:01.917Z,12.10
2023-03-31T05:11:30.116Z,12.10
2023-03-31T05:13:59.652Z,12.10
2023-03-31T05:16:27.840Z,12.10
2023-03-31T05:18:56.198Z,12.10
2023-03-31T05:21:24.464Z,12.10
2023-03-31T05:23:52.611Z,12.10
2023-03-31T05:26:22.395Z,12.10
2023-03-31T05:28:50.573Z,12.10
2023-03-31T05:31:20.155Z,12.10
2023-03-31T05:33:48.398Z,12.10
2023-03-31T05:36:18.437Z,12.10
2023-03-31T05:38:47.733Z,12.10
2023-03-31T05:41:17.063Z,12.20
2023-03-31T05:43:45.261Z,12.20
2023-03-31T05:46:14.051Z,12.20
2023-03-31T05:48:44.862Z,12.20
2023-03-31T05:51:13.017Z,12.20
2023-03-31T05:53:42.020Z,12.20
2023-03-31T05:56:10.806Z,12.20
2023-03-31T05:58:39.112Z,12.30
2023-03-31T06:01:10.077Z,12.30
2023-03-31T06:03:41.349Z,12.30
2023-03-31T06:06:14.823Z,12.30
2023-03-31T06:08:44.016Z,12.30
2023-03-31T06:11:14.145Z,12.30
2023-03-31T06:13:42.887Z,12.30
2023-03-31T06:16:12.456Z,12.30
2023-03-31T06:18:41.628Z,12.30
2023-03-31T06:21:13.608Z,12.40
2023-03-31T06:23:41.795Z,12.40
2023-03-31T06:26:10.300Z,12.40
2023-03-31T06:28:38.466Z,12.50
2023-03-31T06:31:08.695Z,12.50
2023-03-31T06:33:37.485Z,12.50
2023-03-31T06:36:06.915Z,12.60
2023-03-31T06:38:38.451Z,12.60
2023-03-31T06:41:08.057Z,12.60
2023-03-31T06:43:36.877Z,12.70
2023-03-31T06:46:05.919Z,12.70
2023-03-31T06:48:34.305Z,12.80
2023-03-31T06:51:04.386Z,12.80
2023-03-31T06:53:32.737Z,12.90
2023-03-31T06:56:02.624Z,12.90
2023-03-31T06:58:31.548Z,13.00
2023-03-31T07:01:00.352Z,13.00
2023-03-31T07:03:29.612Z,13.10
2023-03-31T07:05:58.116Z,13.10
2023-03-31T07:08:26.648Z,13.10
2023-03-31T07:10:57.889Z,13.20
2023-03-31T07:13:28.654Z,13.20
2023-03-31T07:15:57.354Z,13.20
2023-03-31T07:18:34.785Z,13.30
2023-03-31T07:21:05.095Z,13.30
2023-03-31T07:23:35.285Z,13.30
2023-03-31T07:26:03.425Z,13.40
2023-03-31T07:28:33.950Z,13.40
2023-03-31T07:31:02.117Z,13.40
2023-03-31T07:33:30.237Z,13.50
2023-03-31T07:36:10.912Z,13.60
2023-03-31T07:38:41.241Z,13.60
2023-03-31T07:41:12.116Z,13.60
2023-03-31T07:43:42.074Z,13.70
2023-03-31T07:46:17.625Z,13.70
2023-03-31T07:48:47.694Z,13.70
2023-03-31T07:51:16.943Z,13.70
2023-03-31T07:53:45.324Z,13.70
2023-03-31T07:56:14.242Z,13.70
2023-03-31T07:58:43.842Z,13.70
2023-03-31T08:01:17.037Z,13.80
2023-03-31T08:03:45.528Z,13.90
2023-03-31T08:06:18.329Z,13.80
2023-03-31T08:08:46.830Z,13.80
2023-03-31T08:11:15.341Z,13.70
2023-03-31T08:13:44.904Z,13.70
2023-03-31T08:16:13.165Z,13.70
2023-03-31T08:18:41.403Z,13.60
2023-03-31T08:21:10.795Z,13.60
2023-03-31T08:23:39.057Z,13.60
2023-03-31T08:26:14.508Z,13.60
2023-03-31T08:28:46.267Z,13.60
2023-03-31T08:31:16.486Z,13.60
2023-03-31T08:33:44.735Z,13.60
2023-03-31T08:36:13.661Z,13.50
2023-03-31T08:38:45.979Z,13.50
2023-03-31T08:41:38.905Z,13.50
2023-03-31T08:44:13.248Z,13.50
2023-03-31T08:46:42.755Z,13.50
2023-03-31T08:49:16.620Z,13.40
2023-03-31T08:51:50.095Z,13.40
2023-03-31T08:54:22.486Z,13.40
2023-03-31T08:56:52.041Z,13.40
2023-03-31T08:59:30.390Z,13.40
2023-03-31T09:02:06.019Z,13.40
2023-03-31T09:04:56.448Z,13.30
2023-03-31T09:07:34.821Z,13.40
2023-03-31T09:10:18.521Z,13.40
2023-03-31T09:12:54.986Z,13.40
2023-03-31T09:15:29.514Z,13.50
2023-03-31T09:18:02.332Z,13.50
2023-03-31T09:20:34.065Z,13.50
2023-03-31T09:23:08.722Z,13.50
2023-03-31T09:25:41.496Z,13.50
2023-03-31T09:28:16.586Z,13.40
2023-03-31T09:30:49.758Z,13.50
2023-03-31T09:33:20.685Z,13.50
2023-03-31T09:35:51.437Z,13.50
2023-03-31T09:38:20.373Z,13.40
2023-03-31T09:40:49.012Z,13.40
2023-03-31T09:43:23.236Z,13.50
2023-03-31T09:46:14.796Z,13.50
2023-03-31T09:48:45.048Z,13.50
2023-03-31T09:51:21.582Z,13.50
2023-03-31T09:53:54.839Z,13.50
2023-03-31T09:56:47.077Z,13.50
2023-03-31T09:59:17.980Z,13.60
2023-03-31T10:01:50.629Z,13.60
2023-03-31T10:04:22.882Z,13.60
2023-03-31T10:06:53.054Z,13.60
2023-03-31T10:09:23.291Z,13.70
2023-03-31T10:11:59.010Z,13.70
2023-03-31T10:14:33.720Z,13.70
2023-03-31T10:17:07.426Z,13.80
2023-03-31T10:19:37.852Z,13.80
2023-03-31T10:22:15.586Z,13.80
2023-03-31T10:24:45.674Z,13.90
2023-03-31T10:27:22.341Z,13.80
2023-03-31T10:29:53.908Z,13.90
2023-03-31T10:32:29.326Z,13.90
2023-03-31T10:34:58.714Z,14.00
2023-03-31T10:37:29.707Z,14.00
2023-03-31T10:40:04.548Z,14.00
2023-03-31T10:42:32.996Z,14.00
2023-03-31T10:45:26.106Z,14.00
2023-03-31T10:48:01.252Z,14.10
2023-03-31T10:50:32.341Z,14.10
2023-03-31T10:53:05.779Z,14.10
2023-03-31T10:55:41.090Z,14.20
2023-03-31T10:58:25.343Z,14.20
2023-03-31T11:01:09.181Z,14.30
2023-03-31T11:03:52.203Z,14.30
2023-03-31T11:06:27.083Z,14.30
2023-03-31T11:09:06.679Z,14.40
2023-03-31T11:11:58.095Z,14.40
2023-03-31T11:14:36.354Z,14.40
2023-03-31T11:17:12.535Z,14.40
2023-03-31T11:19:53.942Z,14.30
2023-03-31T11:22:29.740Z,14.30
2023-03-31T11:25:14.854Z,14.30
2023-03-31T11:28:13.870Z,14.40
2023-03-31T11:30:47.976Z,14.40
2023-03-31T11:33:45.647Z,14.40
2023-03-31T11:36:28.654Z,14.50
2023-03-31T11:39:18.639Z,14.50
2023-03-31T11:41:51.903Z,14.60
2023-03-31T11:44:23.040Z,14.60
2023-03-31T11:46:55.076Z,14.70
2023-03-31T11:49:26.536Z,14.70
2023-03-31T11:51:58.568Z,14.70
2023-03-31T11:54:32.528Z,14.80
2023-03-31T11:57:04.564Z,14.80
2023-03-31T11:59:33.975Z,14.90
2023-03-31T12:02:10.904Z,14.90
2023-03-31T12:04:41.580Z,14.90
2023-03-31T12:07:24.109Z,14.90
2023-03-31T12:10:03.319Z,14.90
2023-03-31T12:12:33.492Z,14.90
2023-03-31T12:15:12.455Z,15.00
2023-03-31T12:17:42.745Z,15.00
2023-03-31T12:20:19.001Z,15.00
2023-03-31T12:22:50.700Z,15.00
2023-03-31T12:25:26.149Z,15.00
2023-03-31T12:27:54.875Z,15.00
2023-03-31T12:30:31.362Z,15.00
2023-03-31T12:33:03.915Z,15.00
2023-03-31T12:35:43.045Z,15.10
2023-03-31T12:38:26.543Z,15.10
2023-03-31T12:41:03.774Z,15.10
2023-03-31T12:44:00.762Z,15.20
2023-03-31T12:46:44.986Z,15.20
2023-03-31T12:49:24.071Z,15.20
2023-03-31T12:52:12.895Z,15.20
2023-03-31T12:55:15.847Z,15.20
2023-03-31T12:57:44.092Z,15.30
2023-03-31T13:00:23.358Z,15.30
2023-03-31T13:02:52.395Z,15.30
2023-03-31T13:05:53.580Z,15.30
2023-03-31T13:08:53.607Z,15.30
2023-03-31T13:11:36.028Z,15.30
2023-03-31T13:14:06.861Z,15.30
2023-03-31T13:16:36.778Z,15.30
2023-03-31T13:19:05.438Z,15.40
2023-03-31T13:21:52.731Z,15.40
2023-03-31T13:24:23.882Z,15.40
2023-03-31T13:26:56.751Z,15.40
2023-03-31T13:29:26.949Z,15.40
2023-03-31T13:32:25.557Z,15.50
2023-03-31T13:34:59.725Z,15.50
2023-03-31T13:38:01.741Z,15.50
2023-03-31T13:40:50.142Z,15.50
2023-03-31T13:43:41.263Z,15.50
2023-03-31T13:46:31.592Z,15.60
2023-03-31T13:49:12.393Z,15.60
2023-03-31T13:51:51.663Z,15.60
2023-03-31T13:54:46.013Z,15.60
2023-03-31T13:57:36.984Z,15.60
2023-03-31T14:00:29.650Z,15.60
2023-03-31T14:03:30.635Z,15.60
2023-03-31T14:06:02.834Z,15.60
2023-03-31T14:08:48.486Z,15.60
2023-03-31T14:11:23.694Z,15.70
2023-03-31T14:14:13.203Z,15.70
2023-03-31T14:16:46.605Z,15.70
2023-03-31T14:19:37.565Z,15.80
2023-03-31T14:22:13.760Z,15.80
2023-03-31T14:24:50.769Z,15.90
2023-03-31T14:27:32.399Z,15.90
2023-03-31T14:30:08.162Z,15.90
2023-03-31T14:32:46.044Z,15.90
2023-03-31T14:35:28.898Z,16.00
2023-03-31T14:37:58.250Z,16.00
2023-03-31T14:40:26.822Z,16.00
2023-03-31T14:42:54.945Z,16.00
2023-03-31T14:45:25.586Z,16.00
2023-03-31T14:47:59.675Z,16.00
2023-03-31T14:50:35.702Z,16.10
2023-03-31T14:53:04.944Z,16.10
2023-03-31T14:55:49.429Z,16.10
2023-03-31T14:58:28.076Z,16.20
2023-03-31T15:00:56.730Z,16.20
2023-03-31T15:03:27.544Z,16.20
2023-03-31T15:05:59.489Z,16.20
2023-03-31T15:08:29.770Z,16.30
2023-03-31T15:11:11.970Z,16.20
2023-03-31T15:13:56.652Z,16.30
2023-03-31T15:16:36.255Z,16.30
2023-03-31T15:19:12.207Z,16.30
2023-03-31T15:21:40.934Z,16.30
2023-03-31T15:24:12.391Z,16.30
2023-03-31T15:26:44.814Z,16.30
2023-03-31T15:29:18.876Z,16.30
2023-03-31T15:31:48.302Z,16.30
2023-03-31T15:34:23.071Z,16.30
2023-03-31T15:36:52.052Z,16.40
2023-03-31T15:39:20.393Z,16.40
2023-03-31T15:41:49.357Z,16.40
2023-03-31T15:44:39.655Z,16.40
2023-03-31T15:47:15.073Z,16.40
2023-03-31T15:49:54.622Z,16.40
2023-03-31T15:52:36.055Z,16.50
2023-03-31T15:55:29.105Z,16.50
2023-03-31T15:57:59.401Z,16.50
2023-03-31T16:00:47.268Z,16.50
2023-03-31T16:03:20.009Z,16.40
2023-03-31T16:05:55.737Z,16.40
2023-03-31T16:08:28.228Z,16.40
2023-03-31T16:11:00.453Z,16.40
2023-03-31T16:13:30.415Z,16.40
2023-03-31T16:15:59.875Z,16.30
2023-03-31T16:18:33.984Z,16.30
2023-03-31T16:21:06.344Z,16.30
2023-03-31T16:23:38.685Z,16.30
2023-03-31T16:26:08.050Z,16.30
2023-03-31T16:28:37.786Z,16.30
2023-03-31T16:31:06.770Z,16.30
2023-03-31T16:33:55.740Z,16.30
2023-03-31T16:36:25.243Z,16.30
2023-03-31T16:38:54.082Z,16.20
2023-03-31T16:41:23.313Z,16.30
2023-03-31T16:43:54.207Z,16.20
2023-03-31T16:46:22.774Z,16.20
2023-03-31T16:48:51.632Z,16.20
2023-03-31T16:51:20.532Z,16.20
2023-03-31T16:53:50.069Z,16.20
2023-03-31T16:56:18.194Z,16.20
2023-03-31T16:58:46.294Z,16.10
2023-03-31T17:01:14.630Z,16.10
2023-03-31T17:03:43.118Z,16.10
2023-03-31T17:06:13.455Z,16.00
2023-03-31T17:08:41.827Z,16.10
2023-03-31T17:11:14.270Z,16.00
2023-03-31T17:13:43.763Z,16.00
2023-03-31T17:16:22.253Z,16.00
2023-03-31T17:18:57.571Z,16.00
2023-03-31T17:21:26.232Z,16.00
2023-03-31T17:23:54.773Z,16.00
2023-03-31T17:26:26.927Z,16.00
2023-03-31T17:28:55.163Z,15.90
2023-03-31T17:31:24.531Z,15.90
2023-03-31T17:33:52.811Z,15.90
2023-03-31T17:36:22.290Z,15.80
2023-03-31T17:38:50.477Z,15.80
2023-03-31T17:41:18.767Z,15.80
2023-03-31T17:43:48.925Z,15.80
2023-03-31T17:46:17.764Z,15.70
2023-03-31T17:48:45.993Z,15.70
2023-03-31T17:51:16.096Z,15.60
2023-03-31T17:53:45.629Z,15.60
2023-03-31T17:56:14.977Z,15.60
2023-03-31T17:58:43.014Z,15.60
2023-03-31T18:01:13.520Z,15.60
2023-03-31T18:03:42.333Z,15.60
2023-03-31T18:06:11.812Z,15.60
2023-03-31T18:08:41.649Z,15.60
2023-03-31T18:11:13.359Z,15.50
2023-03-31T18:13:41.640Z,15.50
2023-03-31T18:16:11.996Z,15.50
2023-03-31T18:18:42.554Z,15.50
2023-03-31T18:21:12.993Z,15.50
2023-03-31T18:23:41.936Z,15.50
2023-03-31T18:26:11.316Z,15.50
2023-03-31T18:28:40.717Z,15.40
2023-03-31T18:31:10.044Z,15.40
2023-03-31T18:33:39.051Z,15.40
2023-03-31T18:36:09.698Z,15.40
2023-03-31T18:38:37.934Z,15.40
2023-03-31T18:41:06.124Z,15.40
2023-03-31T18:43:34.711Z,15.30
2023-03-31T18:46:02.995Z,15.30
2023-03-31T18:48:31.370Z,15.30
2023-03-31T18:50:59.643Z,15.20
2023-03-31T18:53:30.086Z,15.30
2023-03-31T18:56:00.001Z,15.20
2023-03-31T18:58:30.176Z,15.20
2023-03-31T19:00:59.279Z,15.20
2023-03-31T19:03:27.785Z,15.20
2023-03-31T19:06:01.949Z,15.20
2023-03-31T19:08:32.684Z,15.20
2023-03-31T19:11:08.537Z,15.10
2023-03-31T19:13:36.758Z,15.10
2023-03-31T19:16:05.104Z,15.10
2023-03-31T19:18:33.418Z,15.10
2023-03-31T19:21:02.135Z,15.10
2023-03-31T19:23:32.514Z,15.10
2023-03-31T19:26:02.531Z,15.10
2023-03-31T19:28:30.924Z,15.10
2023-03-31T19:30:59.714Z,15.00
2023-03-31T19:33:28.365Z,15.00
2023-03-31T19:35:56.756Z,15.00
2023-03-31T19:38:26.945Z,15.00
2023-03-31T19:40:57.241Z,14.90
2023-03-31T19:43:27.617Z,15.00
2023-03-31T19:45:58.026Z,14.90
2023-03-31T19:48:27.527Z,14.90
2023-03-31T19:50:57.683Z,14.90
2023-03-31T19:53:25.906Z,14.90
2023-03-31T19:56:00.734Z,14.90
2023-03-31T19:58:30.238Z,14.80
2023-03-31T20:00:59.382Z,14.80
2023-03-31T20:03:28.393Z,14.80
2023-03-31T20:06:04.053Z,14.80
2023-03-31T20:08:33.493Z,14.80
2023-03-31T20:11:03.893Z,14.80
2023-03-31T20:13:35.801Z,14.70
2023-03-31T20:16:06.583Z,14.70
2023-03-31T20:18:36.496Z,14.70
2023-03-31T20:21:07.089Z,14.70
2023-03-31T20:23:36.515Z,14.70
2023-03-31T20:26:06.676Z,14.70
2023-03-31T20:28:36.938Z,14.70
2023-03-31T20:31:08.038Z,14.60
2023-03-31T20:33:36.428Z,14.60
2023-03-31T20:36:07.895Z,14.50
2023-03-31T20:38:38.359Z,14.50
2023-03-31T20:41:08.825Z,14.50
2023-03-31T20:43:37.109Z,14.50
2023-03-31T20:46:07.510Z,14.40
2023-03-31T20:48:37.600Z,14.40
2023-03-31T20:51:07.186Z,14.30
2023-03-31T20:53:41.755Z,14.30
2023-03-31T20:56:12.024Z,14.30
2023-03-31T20:58:41.781Z,14.20
2023-03-31T21:01:11.878Z,14.20
2023-03-31T21:03:40.322Z,14.10
2023-03-31T21:06:11.368Z,14.10
2023-03-31T21:08:42.794Z,14.10
2023-03-31T21:11:12.534Z,14.20
2023-03-31T21:13:41.000Z,14.20
2023-03-31T21:16:09.183Z,14.20
2023-03-31T21:18:37.736Z,14.20
2023-03-31T21:21:07.663Z,14.20
2023-03-31T21:23:36.329Z,14.20
2023-03-31T21:26:06.268Z,14.20
2023-03-31T21:28:38.584Z,14.20
2023-03-31T21:31:08.362Z,14.20
2023-03-31T21:33:38.563Z,14.20
2023-03-31T21:36:08.036Z,14.20
2023-03-31T21:38:37.200Z,14.10
2023-03-31T21:41:09.783Z,14.10
2023-03-31T21:43:39.814Z,14.10
2023-03-31T21:46:08.506Z,14.10
2023-03-31T21:48:37.151Z,14.10
2023-03-31T21:51:05.590Z,14.10
2023-03-31T21:53:33.685Z,14.10
2023-03-31T21:56:01.851Z,14.00
2023-03-31T21:58:31.180Z,14.00
2023-03-31T22:01:03.922Z,14.00
2023-03-31T22:03:34.527Z,14.00
2023-03-31T22:06:03.962Z,14.00
2023-03-31T22:08:33.030Z,14.00
2023-03-31T22:11:01.684Z,13.90
2023-03-31T22:13:31.329Z,13.90
2023-03-31T22:16:02.095Z,13.90
2023-03-31T22:18:30.988Z,13.90
2023-03-31T22:20:59.344Z,13.70
2023-03-31T22:23:27.782Z,13.60
2023-03-31T22:25:56.059Z,13.50
2023-03-31T22:28:24.200Z,13.50
2023-03-31T22:30:52.384Z,13.40
2023-03-31T22:33:21.956Z,13.40
2023-03-31T22:35:50.606Z,13.40
2023-03-31T22:38:18.895Z,13.40
2023-03-31T22:40:47.020Z,13.40
2023-03-31T22:43:15.233Z,13.40
2023-03-31T22:45:43.373Z,13.50
2023-03-31T22:48:11.580Z,13.50
2023-03-31T22:50:41.362Z,13.50
2023-03-31T22:53:09.986Z,13.50
2023-03-31T22:55:42.553Z,13.50
2023-03-31T22:58:11.003Z,13.50
2023-03-31T23:00:39.238Z,13.50
2023-03-31T23:03:07.493Z,13.50
2023-03-31T23:05:36.031Z,13.50
2023-03-31T23:08:06.383Z,13.50
2023-03-31T23:10:34.517Z,13.60
2023-03-31T23:13:03.691Z,13.50
2023-03-31T23:15:32.273Z,13.50
2023-03-31T23:18:00.705Z,13.50
2023-03-31T23:20:29.162Z,13.50
2023-03-31T23:22:58.376Z,13.50
2023-03-31T23:25:27.959Z,13.50
2023-03-31T23:27:57.305Z,13.50
2023-03-31T23:30:25.629Z,13.50
2023-03-31T23:32:55.215Z,13.50
2023-03-31T23:35:23.438Z,13.50
2023-03-31T23:37:51.761Z,13.50
2023-03-31T23:40:20.035Z,13.50
2023-03-31T23:42:49.608Z,13.50
2023-03-31T23:45:18.621Z,13.50
2023-03-31T23:47:46.762Z,13.50
2023-03-31T23:50:14.890Z,13.50
2023-03-31T23:52:42.947Z,13.50
2023-03-31T23:55:13.097Z,13.40
2023-03-31T23:57:41.363Z,13.40
